sensor_id;sensor_type;location;lat;lon;timestamp;P1;durP1;ratioP1;P2;durP2;ratioP2
41667;SDS011;27356;50.920;5.350;2023-05-29T00:00:19;8.70;;;3.63;;
41667;SDS011;27356;50.920;5.350;2023-05-29T00:02:46;8.95;;;4.28;;
41667;SDS011;27356;50.920;5.350;2023-05-29T00:05:13;12.15;;;4.53;;
41667;SDS011;27356;50.920;5.350;2023-05-29T00:07:39;5.63;;;3.70;;
41667;SDS011;27356;50.920;5.350;2023-05-29T00:10:06;10.90;;;3.78;;
41667;SDS011;27356;50.920;5.350;2023-05-29T00:12:33;7.45;;;4.10;;
41667;SDS011;27356;50.920;5.350;2023-05-29T00:14:59;7.70;;;3.95;;
41667;SDS011;27356;50.920;5.350;2023-05-29T00:17:25;11.10;;;4.13;;
41667;SDS011;27356;50.920;5.350;2023-05-29T00:19:51;7.90;;;3.63;;
41667;SDS011;27356;50.920;5.350;2023-05-29T00:22:17;7.78;;;4.22;;
41667;SDS011;27356;50.920;5.350;2023-05-29T00:24:43;12.13;;;4.47;;
41667;SDS011;27356;50.920;5.350;2023-05-29T00:27:09;10.20;;;4.32;;
41667;SDS011;27356;50.920;5.350;2023-05-29T00:29:36;11.00;;;4.45;;
41667;SDS011;27356;50.920;5.350;2023-05-29T00:32:03;10.18;;;4.32;;
41667;SDS011;27356;50.920;5.350;2023-05-29T00:34:32;11.80;;;4.00;;
41667;SDS011;27356;50.920;5.350;2023-05-29T00:36:58;7.13;;;4.45;;
41667;SDS011;27356;50.920;5.350;2023-05-29T00:39:23;13.85;;;4.53;;
41667;SDS011;27356;50.920;5.350;2023-05-29T00:41:49;12.70;;;4.50;;
41667;SDS011;27356;50.920;5.350;2023-05-29T00:44:19;13.48;;;5.20;;
41667;SDS011;27356;50.920;5.350;2023-05-29T00:46:46;9.18;;;4.53;;
41667;SDS011;27356;50.920;5.350;2023-05-29T00:49:16;10.50;;;4.95;;
41667;SDS011;27356;50.920;5.350;2023-05-29T00:51:42;9.73;;;4.78;;
41667;SDS011;27356;50.920;5.350;2023-05-29T00:54:11;9.95;;;4.70;;
41667;SDS011;27356;50.920;5.350;2023-05-29T00:56:39;11.88;;;4.63;;
41667;SDS011;27356;50.920;5.350;2023-05-29T00:59:08;7.15;;;4.30;;
41667;SDS011;27356;50.920;5.350;2023-05-29T01:01:35;9.40;;;4.88;;
41667;SDS011;27356;50.920;5.350;2023-05-29T01:04:02;10.52;;;5.18;;
41667;SDS011;27356;50.920;5.350;2023-05-29T01:06:31;7.93;;;5.40;;
41667;SDS011;27356;50.920;5.350;2023-05-29T01:08:58;13.32;;;5.15;;
41667;SDS011;27356;50.920;5.350;2023-05-29T01:17:27;10.38;;;5.53;;
41667;SDS011;27356;50.920;5.350;2023-05-29T01:20:27;12.20;;;5.93;;
41667;SDS011;27356;50.920;5.350;2023-05-29T01:26:37;10.00;;;5.28;;
41667;SDS011;27356;50.920;5.350;2023-05-29T01:29:17;12.48;;;5.50;;
41667;SDS011;27356;50.920;5.350;2023-05-29T01:31:46;15.15;;;5.75;;
41667;SDS011;27356;50.920;5.350;2023-05-29T01:34:13;16.13;;;6.57;;
41667;SDS011;27356;50.920;5.350;2023-05-29T01:36:39;14.20;;;6.38;;
41667;SDS011;27356;50.920;5.350;2023-05-29T01:39:07;13.32;;;6.30;;
41667;SDS011;27356;50.920;5.350;2023-05-29T01:41:34;14.48;;;6.45;;
41667;SDS011;27356;50.920;5.350;2023-05-29T01:44:02;12.77;;;6.38;;
41667;SDS011;27356;50.920;5.350;2023-05-29T01:46:30;16.75;;;5.88;;
41667;SDS011;27356;50.920;5.350;2023-05-29T01:48:55;16.20;;;6.63;;
41667;SDS011;27356;50.920;5.350;2023-05-29T01:51:21;14.60;;;6.63;;
41667;SDS011;27356;50.920;5.350;2023-05-29T01:53:47;11.48;;;6.25;;
41667;SDS011;27356;50.920;5.350;2023-05-29T01:56:13;13.60;;;6.82;;
41667;SDS011;27356;50.920;5.350;2023-05-29T01:58:40;15.20;;;6.82;;
41667;SDS011;27356;50.920;5.350;2023-05-29T02:01:06;14.95;;;6.90;;
41667;SDS011;27356;50.920;5.350;2023-05-29T02:03:33;13.52;;;7.05;;
41667;SDS011;27356;50.920;5.350;2023-05-29T02:05:59;16.55;;;7.63;;
41667;SDS011;27356;50.920;5.350;2023-05-29T02:08:25;19.15;;;7.75;;
41667;SDS011;27356;50.920;5.350;2023-05-29T02:10:51;13.07;;;7.45;;
41667;SDS011;27356;50.920;5.350;2023-05-29T02:13:17;15.82;;;7.38;;
41667;SDS011;27356;50.920;5.350;2023-05-29T02:15:44;13.73;;;6.93;;
41667;SDS011;27356;50.920;5.350;2023-05-29T02:18:12;18.83;;;8.43;;
41667;SDS011;27356;50.920;5.350;2023-05-29T02:20:39;20.27;;;8.20;;
41667;SDS011;27356;50.920;5.350;2023-05-29T02:23:05;15.07;;;7.38;;
41667;SDS011;27356;50.920;5.350;2023-05-29T02:25:31;12.90;;;7.20;;
41667;SDS011;27356;50.920;5.350;2023-05-29T02:27:56;20.38;;;7.53;;
41667;SDS011;27356;50.920;5.350;2023-05-29T02:30:22;18.27;;;7.15;;
41667;SDS011;27356;50.920;5.350;2023-05-29T02:32:48;13.02;;;7.03;;
41667;SDS011;27356;50.920;5.350;2023-05-29T02:35:14;22.40;;;7.85;;
41667;SDS011;27356;50.920;5.350;2023-05-29T02:37:43;18.67;;;6.25;;
41667;SDS011;27356;50.920;5.350;2023-05-29T02:40:09;19.75;;;6.68;;
41667;SDS011;27356;50.920;5.350;2023-05-29T02:42:35;18.70;;;5.72;;
41667;SDS011;27356;50.920;5.350;2023-05-29T02:45:01;15.85;;;6.10;;
41667;SDS011;27356;50.920;5.350;2023-05-29T02:47:27;14.90;;;6.32;;
41667;SDS011;27356;50.920;5.350;2023-05-29T02:49:53;19.30;;;6.88;;
41667;SDS011;27356;50.920;5.350;2023-05-29T02:52:19;14.25;;;5.32;;
41667;SDS011;27356;50.920;5.350;2023-05-29T02:54:45;18.15;;;5.82;;
41667;SDS011;27356;50.920;5.350;2023-05-29T02:57:10;11.60;;;5.30;;
41667;SDS011;27356;50.920;5.350;2023-05-29T02:59:36;19.75;;;4.72;;
41667;SDS011;27356;50.920;5.350;2023-05-29T03:02:02;13.30;;;5.07;;
41667;SDS011;27356;50.920;5.350;2023-05-29T03:04:28;13.88;;;5.40;;
41667;SDS011;27356;50.920;5.350;2023-05-29T03:06:54;17.17;;;5.05;;
41667;SDS011;27356;50.920;5.350;2023-05-29T03:09:20;16.77;;;5.28;;
41667;SDS011;27356;50.920;5.350;2023-05-29T03:11:46;8.50;;;4.50;;
41667;SDS011;27356;50.920;5.350;2023-05-29T03:14:15;19.27;;;4.20;;
41667;SDS011;27356;50.920;5.350;2023-05-29T03:16:43;13.07;;;4.15;;
41667;SDS011;27356;50.920;5.350;2023-05-29T03:19:08;13.75;;;3.83;;
41667;SDS011;27356;50.920;5.350;2023-05-29T03:21:34;15.73;;;5.32;;
41667;SDS011;27356;50.920;5.350;2023-05-29T03:24:01;18.95;;;4.75;;
41667;SDS011;27356;50.920;5.350;2023-05-29T03:26:30;13.02;;;4.00;;
41667;SDS011;27356;50.920;5.350;2023-05-29T03:28:56;15.45;;;4.65;;
41667;SDS011;27356;50.920;5.350;2023-05-29T03:31:22;14.98;;;4.22;;
41667;SDS011;27356;50.920;5.350;2023-05-29T03:33:48;11.95;;;3.55;;
41667;SDS011;27356;50.920;5.350;2023-05-29T03:36:14;15.60;;;4.03;;
41667;SDS011;27356;50.920;5.350;2023-05-29T03:38:43;10.32;;;3.30;;
41667;SDS011;27356;50.920;5.350;2023-05-29T03:41:09;10.93;;;3.67;;
41667;SDS011;27356;50.920;5.350;2023-05-29T03:43:35;10.75;;;3.38;;
41667;SDS011;27356;50.920;5.350;2023-05-29T03:46:02;18.30;;;3.58;;
41667;SDS011;27356;50.920;5.350;2023-05-29T03:48:28;16.13;;;4.32;;
41667;SDS011;27356;50.920;5.350;2023-05-29T03:50:53;19.88;;;4.13;;
41667;SDS011;27356;50.920;5.350;2023-05-29T03:53:19;16.40;;;3.20;;
41667;SDS011;27356;50.920;5.350;2023-05-29T03:55:45;17.48;;;3.20;;
41667;SDS011;27356;50.920;5.350;2023-05-29T03:58:11;14.13;;;2.35;;
41667;SDS011;27356;50.920;5.350;2023-05-29T04:00:37;14.57;;;2.80;;
41667;SDS011;27356;50.920;5.350;2023-05-29T04:03:03;12.23;;;3.20;;
41667;SDS011;27356;50.920;5.350;2023-05-29T04:05:29;14.85;;;2.80;;
41667;SDS011;27356;50.920;5.350;2023-05-29T04:07:55;7.40;;;2.70;;
41667;SDS011;27356;50.920;5.350;2023-05-29T04:10:21;13.13;;;3.20;;
41667;SDS011;27356;50.920;5.350;2023-05-29T04:12:48;9.65;;;2.97;;
41667;SDS011;27356;50.920;5.350;2023-05-29T04:15:14;18.92;;;2.92;;
41667;SDS011;27356;50.920;5.350;2023-05-29T04:17:40;11.38;;;2.47;;
41667;SDS011;27356;50.920;5.350;2023-05-29T04:20:05;12.05;;;2.25;;
41667;SDS011;27356;50.920;5.350;2023-05-29T04:22:34;9.15;;;2.45;;
41667;SDS011;27356;50.920;5.350;2023-05-29T04:25:01;10.80;;;2.58;;
41667;SDS011;27356;50.920;5.350;2023-05-29T04:27:28;12.13;;;2.95;;
41667;SDS011;27356;50.920;5.350;2023-05-29T04:29:56;12.95;;;2.60;;
41667;SDS011;27356;50.920;5.350;2023-05-29T04:32:23;19.05;;;3.25;;
41667;SDS011;27356;50.920;5.350;2023-05-29T04:34:49;10.25;;;2.42;;
41667;SDS011;27356;50.920;5.350;2023-05-29T04:37:16;7.93;;;2.53;;
41667;SDS011;27356;50.920;5.350;2023-05-29T04:39:42;9.80;;;2.60;;
41667;SDS011;27356;50.920;5.350;2023-05-29T04:42:08;10.20;;;2.70;;
41667;SDS011;27356;50.920;5.350;2023-05-29T04:44:34;12.52;;;2.72;;
41667;SDS011;27356;50.920;5.350;2023-05-29T04:47:00;10.40;;;2.30;;
41667;SDS011;27356;50.920;5.350;2023-05-29T04:49:31;11.35;;;2.00;;
41667;SDS011;27356;50.920;5.350;2023-05-29T04:51:57;16.83;;;2.55;;
41667;SDS011;27356;50.920;5.350;2023-05-29T04:54:25;17.42;;;2.70;;
41667;SDS011;27356;50.920;5.350;2023-05-29T04:56:51;12.60;;;3.05;;
41667;SDS011;27356;50.920;5.350;2023-05-29T04:59:17;14.05;;;2.40;;
41667;SDS011;27356;50.920;5.350;2023-05-29T05:01:42;10.77;;;2.00;;
41667;SDS011;27356;50.920;5.350;2023-05-29T05:04:09;11.15;;;2.38;;
41667;SDS011;27356;50.920;5.350;2023-05-29T05:06:35;15.20;;;3.58;;
41667;SDS011;27356;50.920;5.350;2023-05-29T05:09:01;11.40;;;2.35;;
41667;SDS011;27356;50.920;5.350;2023-05-29T05:11:27;12.77;;;2.22;;
41667;SDS011;27356;50.920;5.350;2023-05-29T05:13:52;13.38;;;2.60;;
41667;SDS011;27356;50.920;5.350;2023-05-29T05:16:18;15.93;;;2.40;;
41667;SDS011;27356;50.920;5.350;2023-05-29T05:18:44;12.95;;;2.60;;
41667;SDS011;27356;50.920;5.350;2023-05-29T05:21:10;9.30;;;1.88;;
41667;SDS011;27356;50.920;5.350;2023-05-29T05:23:36;10.27;;;2.17;;
41667;SDS011;27356;50.920;5.350;2023-05-29T05:26:02;10.48;;;2.42;;
41667;SDS011;27356;50.920;5.350;2023-05-29T05:28:28;10.30;;;2.10;;
41667;SDS011;27356;50.920;5.350;2023-05-29T05:30:53;14.60;;;2.60;;
41667;SDS011;27356;50.920;5.350;2023-05-29T05:33:19;12.95;;;2.50;;
41667;SDS011;27356;50.920;5.350;2023-05-29T05:35:45;13.40;;;2.15;;
41667;SDS011;27356;50.920;5.350;2023-05-29T05:38:11;11.75;;;2.33;;
41667;SDS011;27356;50.920;5.350;2023-05-29T05:40:37;10.77;;;3.30;;
41667;SDS011;27356;50.920;5.350;2023-05-29T05:43:03;11.00;;;2.47;;
41667;SDS011;27356;50.920;5.350;2023-05-29T05:45:28;11.90;;;2.50;;
41667;SDS011;27356;50.920;5.350;2023-05-29T05:47:56;7.32;;;2.08;;
41667;SDS011;27356;50.920;5.350;2023-05-29T05:50:22;10.27;;;2.33;;
41667;SDS011;27356;50.920;5.350;2023-05-29T05:52:49;12.48;;;2.70;;
41667;SDS011;27356;50.920;5.350;2023-05-29T05:55:15;13.70;;;2.95;;
41667;SDS011;27356;50.920;5.350;2023-05-29T05:57:41;10.10;;;2.25;;
41667;SDS011;27356;50.920;5.350;2023-05-29T06:00:07;8.48;;;2.08;;
41667;SDS011;27356;50.920;5.350;2023-05-29T06:02:39;15.32;;;3.50;;
41667;SDS011;27356;50.920;5.350;2023-05-29T06:05:09;12.55;;;2.10;;
41667;SDS011;27356;50.920;5.350;2023-05-29T06:07:36;9.80;;;2.33;;
41667;SDS011;27356;50.920;5.350;2023-05-29T06:10:03;13.52;;;2.55;;
41667;SDS011;27356;50.920;5.350;2023-05-29T06:12:29;15.90;;;3.10;;
41667;SDS011;27356;50.920;5.350;2023-05-29T06:14:55;15.25;;;2.88;;
41667;SDS011;27356;50.920;5.350;2023-05-29T06:17:21;13.65;;;2.30;;
41667;SDS011;27356;50.920;5.350;2023-05-29T06:19:48;9.60;;;1.90;;
41667;SDS011;27356;50.920;5.350;2023-05-29T06:22:14;11.52;;;2.67;;
41667;SDS011;27356;50.920;5.350;2023-05-29T06:24:40;8.63;;;2.28;;
41667;SDS011;27356;50.920;5.350;2023-05-29T06:27:06;8.60;;;2.42;;
41667;SDS011;27356;50.920;5.350;2023-05-29T06:29:32;10.63;;;2.35;;
41667;SDS011;27356;50.920;5.350;2023-05-29T06:31:58;12.90;;;2.00;;
41667;SDS011;27356;50.920;5.350;2023-05-29T06:34:24;9.10;;;2.55;;
41667;SDS011;27356;50.920;5.350;2023-05-29T06:36:50;14.75;;;2.40;;
41667;SDS011;27356;50.920;5.350;2023-05-29T06:39:15;9.63;;;2.40;;
41667;SDS011;27356;50.920;5.350;2023-05-29T06:41:43;7.10;;;2.50;;
41667;SDS011;27356;50.920;5.350;2023-05-29T06:44:09;7.90;;;2.40;;
41667;SDS011;27356;50.920;5.350;2023-05-29T06:46:34;10.98;;;2.40;;
41667;SDS011;27356;50.920;5.350;2023-05-29T06:49:00;13.07;;;1.92;;
41667;SDS011;27356;50.920;5.350;2023-05-29T06:51:26;7.20;;;2.10;;
41667;SDS011;27356;50.920;5.350;2023-05-29T06:53:52;8.52;;;2.30;;
41667;SDS011;27356;50.920;5.350;2023-05-29T06:56:17;7.28;;;2.10;;
41667;SDS011;27356;50.920;5.350;2023-05-29T06:58:43;7.97;;;2.05;;
41667;SDS011;27356;50.920;5.350;2023-05-29T07:01:10;8.90;;;2.20;;
41667;SDS011;27356;50.920;5.350;2023-05-29T07:03:36;11.70;;;2.53;;
41667;SDS011;27356;50.920;5.350;2023-05-29T07:06:02;9.70;;;2.40;;
41667;SDS011;27356;50.920;5.350;2023-05-29T07:08:28;11.10;;;2.75;;
41667;SDS011;27356;50.920;5.350;2023-05-29T07:10:54;12.93;;;2.35;;
41667;SDS011;27356;50.920;5.350;2023-05-29T07:13:20;9.30;;;2.50;;
41667;SDS011;27356;50.920;5.350;2023-05-29T07:15:48;13.18;;;2.28;;
41667;SDS011;27356;50.920;5.350;2023-05-29T07:18:13;10.32;;;2.38;;
41667;SDS011;27356;50.920;5.350;2023-05-29T07:20:39;8.10;;;2.50;;
41667;SDS011;27356;50.920;5.350;2023-05-29T07:23:05;9.18;;;2.13;;
41667;SDS011;27356;50.920;5.350;2023-05-29T07:25:31;11.10;;;2.33;;
41667;SDS011;27356;50.920;5.350;2023-05-29T07:27:57;11.43;;;2.25;;
41667;SDS011;27356;50.920;5.350;2023-05-29T07:30:23;10.23;;;2.60;;
41667;SDS011;27356;50.920;5.350;2023-05-29T07:32:49;8.88;;;2.47;;
41667;SDS011;27356;50.920;5.350;2023-05-29T07:35:15;8.02;;;2.15;;
41667;SDS011;27356;50.920;5.350;2023-05-29T07:37:41;10.07;;;2.30;;
41667;SDS011;27356;50.920;5.350;2023-05-29T07:40:06;15.73;;;2.58;;
41667;SDS011;27356;50.920;5.350;2023-05-29T07:42:33;11.60;;;2.65;;
41667;SDS011;27356;50.920;5.350;2023-05-29T07:44:59;8.77;;;2.00;;
41667;SDS011;27356;50.920;5.350;2023-05-29T07:47:25;12.38;;;2.55;;
41667;SDS011;27356;50.920;5.350;2023-05-29T07:49:51;10.07;;;2.60;;
41667;SDS011;27356;50.920;5.350;2023-05-29T07:52:17;10.38;;;2.33;;
41667;SDS011;27356;50.920;5.350;2023-05-29T07:54:43;8.40;;;2.35;;
41667;SDS011;27356;50.920;5.350;2023-05-29T07:57:09;9.55;;;2.70;;
41667;SDS011;27356;50.920;5.350;2023-05-29T07:59:35;8.40;;;2.30;;
41667;SDS011;27356;50.920;5.350;2023-05-29T08:02:01;5.40;;;1.92;;
41667;SDS011;27356;50.920;5.350;2023-05-29T08:04:29;9.63;;;2.90;;
41667;SDS011;27356;50.920;5.350;2023-05-29T08:06:55;12.40;;;2.97;;
41667;SDS011;27356;50.920;5.350;2023-05-29T08:09:21;8.98;;;2.15;;
41667;SDS011;27356;50.920;5.350;2023-05-29T08:11:46;9.23;;;2.38;;
41667;SDS011;27356;50.920;5.350;2023-05-29T08:14:15;8.20;;;2.13;;
41667;SDS011;27356;50.920;5.350;2023-05-29T08:16:41;9.55;;;2.20;;
41667;SDS011;27356;50.920;5.350;2023-05-29T08:19:08;11.68;;;2.75;;
41667;SDS011;27356;50.920;5.350;2023-05-29T08:21:33;7.80;;;2.08;;
41667;SDS011;27356;50.920;5.350;2023-05-29T08:23:59;9.43;;;2.33;;
41667;SDS011;27356;50.920;5.350;2023-05-29T08:26:27;8.20;;;2.13;;
41667;SDS011;27356;50.920;5.350;2023-05-29T08:28:52;19.33;;;2.78;;
41667;SDS011;27356;50.920;5.350;2023-05-29T08:31:19;10.23;;;2.70;;
41667;SDS011;27356;50.920;5.350;2023-05-29T08:33:45;5.28;;;2.15;;
41667;SDS011;27356;50.920;5.350;2023-05-29T08:36:11;11.00;;;2.50;;
41667;SDS011;27356;50.920;5.350;2023-05-29T08:38:37;16.52;;;2.60;;
41667;SDS011;27356;50.920;5.350;2023-05-29T08:41:04;9.25;;;2.55;;
41667;SDS011;27356;50.920;5.350;2023-05-29T08:43:32;6.03;;;1.95;;
41667;SDS011;27356;50.920;5.350;2023-05-29T08:45:59;13.27;;;2.50;;
41667;SDS011;27356;50.920;5.350;2023-05-29T08:48:27;7.18;;;2.20;;
41667;SDS011;27356;50.920;5.350;2023-05-29T08:50:54;6.93;;;2.20;;
41667;SDS011;27356;50.920;5.350;2023-05-29T08:53:22;11.10;;;3.08;;
41667;SDS011;27356;50.920;5.350;2023-05-29T08:55:49;10.93;;;2.28;;
41667;SDS011;27356;50.920;5.350;2023-05-29T08:58:16;7.07;;;1.92;;
41667;SDS011;27356;50.920;5.350;2023-05-29T09:00:46;9.93;;;2.83;;
41667;SDS011;27356;50.920;5.350;2023-05-29T09:03:13;8.57;;;2.38;;
41667;SDS011;27356;50.920;5.350;2023-05-29T09:05:39;8.02;;;2.75;;
41667;SDS011;27356;50.920;5.350;2023-05-29T09:08:09;11.50;;;3.30;;
41667;SDS011;27356;50.920;5.350;2023-05-29T09:10:37;12.25;;;2.53;;
41667;SDS011;27356;50.920;5.350;2023-05-29T09:13:07;11.63;;;2.80;;
41667;SDS011;27356;50.920;5.350;2023-05-29T09:15:34;7.20;;;2.30;;
41667;SDS011;27356;50.920;5.350;2023-05-29T09:18:00;10.55;;;2.33;;
41667;SDS011;27356;50.920;5.350;2023-05-29T09:20:26;13.77;;;2.70;;
41667;SDS011;27356;50.920;5.350;2023-05-29T09:22:53;10.43;;;2.53;;
41667;SDS011;27356;50.920;5.350;2023-05-29T09:25:20;10.70;;;2.70;;
41667;SDS011;27356;50.920;5.350;2023-05-29T09:27:50;9.35;;;2.70;;
41667;SDS011;27356;50.920;5.350;2023-05-29T09:33:05;10.70;;;2.42;;
41667;SDS011;27356;50.920;5.350;2023-05-29T09:35:34;8.32;;;2.30;;
41667;SDS011;27356;50.920;5.350;2023-05-29T09:38:01;6.97;;;2.13;;
41667;SDS011;27356;50.920;5.350;2023-05-29T09:40:30;7.65;;;1.95;;
41667;SDS011;27356;50.920;5.350;2023-05-29T09:43:17;9.23;;;2.55;;
41667;SDS011;27356;50.920;5.350;2023-05-29T09:45:48;9.15;;;2.33;;
41667;SDS011;27356;50.920;5.350;2023-05-29T09:48:15;9.88;;;2.65;;
41667;SDS011;27356;50.920;5.350;2023-05-29T09:50:43;8.55;;;1.95;;
41667;SDS011;27356;50.920;5.350;2023-05-29T09:53:16;10.23;;;2.00;;
41667;SDS011;27356;50.920;5.350;2023-05-29T09:55:50;11.00;;;2.55;;
41667;SDS011;27356;50.920;5.350;2023-05-29T09:58:21;6.77;;;1.90;;
41667;SDS011;27356;50.920;5.350;2023-05-29T10:00:47;8.75;;;2.55;;
41667;SDS011;27356;50.920;5.350;2023-05-29T10:03:14;9.85;;;2.15;;
41667;SDS011;27356;50.920;5.350;2023-05-29T10:05:41;10.02;;;2.72;;
41667;SDS011;27356;50.920;5.350;2023-05-29T10:08:08;8.55;;;1.98;;
41667;SDS011;27356;50.920;5.350;2023-05-29T10:10:38;7.45;;;2.15;;
41667;SDS011;27356;50.920;5.350;2023-05-29T10:13:09;7.15;;;2.42;;
41667;SDS011;27356;50.920;5.350;2023-05-29T10:15:37;9.50;;;2.17;;
41667;SDS011;27356;50.920;5.350;2023-05-29T10:18:06;7.22;;;2.33;;
41667;SDS011;27356;50.920;5.350;2023-05-29T10:20:48;7.95;;;2.50;;
41667;SDS011;27356;50.920;5.350;2023-05-29T10:23:19;10.95;;;2.30;;
41667;SDS011;27356;50.920;5.350;2023-05-29T10:25:49;7.97;;;2.78;;
41667;SDS011;27356;50.920;5.350;2023-05-29T10:28:18;10.63;;;2.28;;
41667;SDS011;27356;50.920;5.350;2023-05-29T10:30:47;6.95;;;1.98;;
41667;SDS011;27356;50.920;5.350;2023-05-29T10:36:01;7.20;;;2.10;;
41667;SDS011;27356;50.920;5.350;2023-05-29T10:38:47;9.45;;;2.20;;
41667;SDS011;27356;50.920;5.350;2023-05-29T10:43:54;7.97;;;2.60;;
41667;SDS011;27356;50.920;5.350;2023-05-29T10:49:19;9.25;;;2.60;;
41667;SDS011;27356;50.920;5.350;2023-05-29T10:51:46;7.45;;;1.98;;
41667;SDS011;27356;50.920;5.350;2023-05-29T10:54:13;10.23;;;2.13;;
41667;SDS011;27356;50.920;5.350;2023-05-29T10:56:41;15.45;;;3.17;;
41667;SDS011;27356;50.920;5.350;2023-05-29T10:59:10;14.90;;;2.65;;
41667;SDS011;27356;50.920;5.350;2023-05-29T11:01:38;7.72;;;2.20;;
41667;SDS011;27356;50.920;5.350;2023-05-29T11:06:45;7.67;;;2.37;;
41667;SDS011;27356;50.920;5.350;2023-05-29T11:09:27;11.55;;;2.20;;
41667;SDS011;27356;50.920;5.350;2023-05-29T11:20:05;8.02;;;2.13;;
41667;SDS011;27356;50.920;5.350;2023-05-29T11:25:10;9.05;;;2.30;;
41667;SDS011;27356;50.920;5.350;2023-05-29T11:27:38;6.53;;;2.35;;
41667;SDS011;27356;50.920;5.350;2023-05-29T11:30:05;7.93;;;1.98;;
41667;SDS011;27356;50.920;5.350;2023-05-29T11:32:32;11.32;;;2.05;;
41667;SDS011;27356;50.920;5.350;2023-05-29T11:35:04;8.52;;;2.28;;
41667;SDS011;27356;50.920;5.350;2023-05-29T11:37:33;12.30;;;2.95;;
41667;SDS011;27356;50.920;5.350;2023-05-29T11:40:02;9.68;;;2.58;;
41667;SDS011;27356;50.920;5.350;2023-05-29T11:42:32;7.57;;;2.42;;
41667;SDS011;27356;50.920;5.350;2023-05-29T11:47:58;7.85;;;1.85;;
41667;SDS011;27356;50.920;5.350;2023-05-29T11:50:28;8.52;;;2.35;;
41667;SDS011;27356;50.920;5.350;2023-05-29T11:52:56;8.48;;;2.13;;
41667;SDS011;27356;50.920;5.350;2023-05-29T11:55:23;8.75;;;2.22;;
41667;SDS011;27356;50.920;5.350;2023-05-29T11:57:50;12.93;;;2.35;;
41667;SDS011;27356;50.920;5.350;2023-05-29T12:00:17;7.15;;;1.75;;
41667;SDS011;27356;50.920;5.350;2023-05-29T12:02:44;8.32;;;2.10;;
41667;SDS011;27356;50.920;5.350;2023-05-29T12:05:12;6.85;;;2.00;;
41667;SDS011;27356;50.920;5.350;2023-05-29T12:08:01;5.70;;;1.70;;
41667;SDS011;27356;50.920;5.350;2023-05-29T12:10:27;6.03;;;1.92;;
41667;SDS011;27356;50.920;5.350;2023-05-29T12:12:54;7.60;;;2.15;;
41667;SDS011;27356;50.920;5.350;2023-05-29T12:15:21;8.05;;;1.90;;
41667;SDS011;27356;50.920;5.350;2023-05-29T12:17:51;9.75;;;2.35;;
41667;SDS011;27356;50.920;5.350;2023-05-29T12:20:18;5.75;;;1.77;;
41667;SDS011;27356;50.920;5.350;2023-05-29T12:22:45;8.00;;;1.60;;
41667;SDS011;27356;50.920;5.350;2023-05-29T12:25:14;6.25;;;1.77;;
41667;SDS011;27356;50.920;5.350;2023-05-29T12:27:45;9.23;;;2.28;;
41667;SDS011;27356;50.920;5.350;2023-05-29T12:30:13;9.40;;;2.50;;
41667;SDS011;27356;50.920;5.350;2023-05-29T12:43:03;6.90;;;1.98;;
41667;SDS011;27356;50.920;5.350;2023-05-29T12:45:31;5.60;;;1.65;;
41667;SDS011;27356;50.920;5.350;2023-05-29T12:47:59;7.60;;;2.35;;
41667;SDS011;27356;50.920;5.350;2023-05-29T12:50:32;8.00;;;2.33;;
41667;SDS011;27356;50.920;5.350;2023-05-29T12:55:42;7.95;;;1.92;;
41667;SDS011;27356;50.920;5.350;2023-05-29T12:58:11;8.90;;;1.92;;
41667;SDS011;27356;50.920;5.350;2023-05-29T13:00:39;6.90;;;1.80;;
41667;SDS011;27356;50.920;5.350;2023-05-29T13:03:06;8.77;;;2.60;;
41667;SDS011;27356;50.920;5.350;2023-05-29T13:05:33;10.75;;;2.58;;
41667;SDS011;27356;50.920;5.350;2023-05-29T13:08:00;10.88;;;2.10;;
41667;SDS011;27356;50.920;5.350;2023-05-29T13:10:26;7.90;;;2.00;;
41667;SDS011;27356;50.920;5.350;2023-05-29T13:12:53;10.32;;;2.60;;
41667;SDS011;27356;50.920;5.350;2023-05-29T13:15:21;6.80;;;1.67;;
41667;SDS011;27356;50.920;5.350;2023-05-29T13:17:47;6.82;;;2.00;;
41667;SDS011;27356;50.920;5.350;2023-05-29T13:20:14;12.15;;;2.17;;
41667;SDS011;27356;50.920;5.350;2023-05-29T13:22:40;7.15;;;2.15;;
41667;SDS011;27356;50.920;5.350;2023-05-29T13:25:09;6.18;;;1.80;;
41667;SDS011;27356;50.920;5.350;2023-05-29T13:27:37;8.45;;;2.17;;
41667;SDS011;27356;50.920;5.350;2023-05-29T13:30:05;5.25;;;2.10;;
41667;SDS011;27356;50.920;5.350;2023-05-29T13:32:33;11.32;;;2.40;;
41667;SDS011;27356;50.920;5.350;2023-05-29T13:34:59;4.85;;;1.90;;
41667;SDS011;27356;50.920;5.350;2023-05-29T13:37:25;6.18;;;1.52;;
41667;SDS011;27356;50.920;5.350;2023-05-29T13:39:52;7.13;;;1.95;;
41667;SDS011;27356;50.920;5.350;2023-05-29T13:42:18;6.18;;;1.98;;
41667;SDS011;27356;50.920;5.350;2023-05-29T13:44:44;4.68;;;1.65;;
41667;SDS011;27356;50.920;5.350;2023-05-29T13:47:11;4.32;;;1.58;;
41667;SDS011;27356;50.920;5.350;2023-05-29T13:49:37;7.93;;;1.95;;
41667;SDS011;27356;50.920;5.350;2023-05-29T13:52:03;7.18;;;1.98;;
41667;SDS011;27356;50.920;5.350;2023-05-29T13:54:29;4.97;;;1.85;;
41667;SDS011;27356;50.920;5.350;2023-05-29T13:56:56;4.90;;;1.58;;
41667;SDS011;27356;50.920;5.350;2023-05-29T13:59:23;9.90;;;2.20;;
41667;SDS011;27356;50.920;5.350;2023-05-29T14:01:49;7.93;;;1.83;;
41667;SDS011;27356;50.920;5.350;2023-05-29T14:04:16;8.77;;;2.22;;
41667;SDS011;27356;50.920;5.350;2023-05-29T14:06:41;8.45;;;2.10;;
41667;SDS011;27356;50.920;5.350;2023-05-29T14:09:07;4.90;;;2.08;;
41667;SDS011;27356;50.920;5.350;2023-05-29T14:11:36;6.38;;;2.20;;
41667;SDS011;27356;50.920;5.350;2023-05-29T14:14:02;5.32;;;2.10;;
41667;SDS011;27356;50.920;5.350;2023-05-29T14:16:29;4.70;;;2.10;;
41667;SDS011;27356;50.920;5.350;2023-05-29T14:18:55;6.07;;;1.92;;
41667;SDS011;27356;50.920;5.350;2023-05-29T14:21:21;10.25;;;2.05;;
41667;SDS011;27356;50.920;5.350;2023-05-29T14:23:47;10.70;;;1.95;;
41667;SDS011;27356;50.920;5.350;2023-05-29T14:26:13;5.38;;;1.67;;
41667;SDS011;27356;50.920;5.350;2023-05-29T14:28:38;8.23;;;2.40;;
41667;SDS011;27356;50.920;5.350;2023-05-29T14:31:04;7.22;;;1.85;;
41667;SDS011;27356;50.920;5.350;2023-05-29T14:33:30;12.63;;;2.30;;
41667;SDS011;27356;50.920;5.350;2023-05-29T14:35:57;12.38;;;2.75;;
41667;SDS011;27356;50.920;5.350;2023-05-29T14:38:23;5.90;;;1.88;;
41667;SDS011;27356;50.920;5.350;2023-05-29T14:40:50;5.13;;;2.15;;
41667;SDS011;27356;50.920;5.350;2023-05-29T14:43:16;7.45;;;2.13;;
41667;SDS011;27356;50.920;5.350;2023-05-29T14:45:43;6.30;;;2.03;;
41667;SDS011;27356;50.920;5.350;2023-05-29T14:48:09;5.45;;;1.98;;
41667;SDS011;27356;50.920;5.350;2023-05-29T14:50:36;3.97;;;1.60;;
41667;SDS011;27356;50.920;5.350;2023-05-29T14:53:02;12.80;;;2.65;;
41667;SDS011;27356;50.920;5.350;2023-05-29T14:55:28;9.23;;;1.90;;
41667;SDS011;27356;50.920;5.350;2023-05-29T14:57:55;8.68;;;2.67;;
41667;SDS011;27356;50.920;5.350;2023-05-29T15:00:21;11.18;;;2.10;;
41667;SDS011;27356;50.920;5.350;2023-05-29T15:02:47;7.88;;;2.10;;
41667;SDS011;27356;50.920;5.350;2023-05-29T15:05:13;9.18;;;2.42;;
41667;SDS011;27356;50.920;5.350;2023-05-29T15:07:38;8.68;;;2.08;;
41667;SDS011;27356;50.920;5.350;2023-05-29T15:10:04;6.82;;;2.03;;
41667;SDS011;27356;50.920;5.350;2023-05-29T15:12:31;7.07;;;1.90;;
41667;SDS011;27356;50.920;5.350;2023-05-29T15:14:57;6.93;;;2.00;;
41667;SDS011;27356;50.920;5.350;2023-05-29T15:17:23;10.00;;;2.38;;
41667;SDS011;27356;50.920;5.350;2023-05-29T15:19:49;8.30;;;1.83;;
41667;SDS011;27356;50.920;5.350;2023-05-29T15:22:15;7.40;;;1.88;;
41667;SDS011;27356;50.920;5.350;2023-05-29T15:24:41;6.88;;;1.75;;
41667;SDS011;27356;50.920;5.350;2023-05-29T15:27:06;11.10;;;2.55;;
41667;SDS011;27356;50.920;5.350;2023-05-29T15:29:34;6.43;;;1.80;;